createdAt,value
2024-03-10T00:03:10.068Z,46.30
2024-03-10T00:06:36.273Z,49.00
2024-03-10T00:10:02.960Z,49.80
2024-03-10T00:13:29.564Z,50.10
2024-03-10T00:16:56.973Z,52.00
2024-03-10T00:20:23.634Z,50.00
2024-03-10T00:23:50.114Z,51.20
2024-03-10T00:27:17.021Z,48.00
2024-03-10T00:30:42.693Z,46.30
2024-03-10T00:34:09.662Z,49.80
2024-03-10T00:37:36.080Z,46.00
2024-03-10T00:41:01.918Z,51.00
2024-03-10T00:44:28.720Z,45.30
2024-03-10T00:47:56.353Z,48.90
2024-03-10T00:51:22.315Z,47.40
2024-03-10T00:54:49.008Z,50.40
2024-03-10T00:58:15.255Z,48.00
2024-03-10T01:01:41.467Z,47.40
2024-03-10T01:05:11.267Z,52.90
2024-03-10T01:08:37.742Z,52.40
2024-03-10T01:12:04.536Z,52.40
2024-03-10T01:15:33.377Z,55.90
2024-03-10T01:19:00.940Z,52.00
2024-03-10T01:22:27.483Z,49.70
2024-03-10T01:25:53.847Z,47.60
2024-03-10T01:29:20.218Z,48.20
2024-03-10T01:32:46.456Z,50.30
2024-03-10T01:36:12.730Z,48.70
2024-03-10T01:39:38.996Z,49.20
2024-03-10T01:43:07.115Z,49.00
2024-03-10T01:46:33.414Z,56.90
2024-03-10T01:49:59.944Z,50.00
2024-03-10T01:53:26.050Z,52.60
2024-03-10T01:56:54.627Z,52.40
2024-03-10T02:00:23.196Z,46.20
2024-03-10T02:03:51.089Z,55.20
2024-03-10T02:07:17.961Z,50.80
2024-03-10T02:10:47.045Z,48.00
2024-03-10T02:14:13.099Z,51.60
2024-03-10T02:17:39.458Z,50.60
2024-03-10T02:21:10.158Z,49.60
2024-03-10T02:24:40.022Z,52.10
2024-03-10T02:28:21.903Z,47.80
2024-03-10T02:32:19.159Z,51.20
2024-03-10T02:36:02.404Z,51.80
2024-03-10T02:40:00.488Z,51.70
2024-03-10T02:43:43.070Z,49.90
2024-03-10T02:47:15.881Z,51.90
2024-03-10T02:50:42.115Z,49.20
2024-03-10T02:54:09.479Z,52.60
2024-03-10T02:57:35.914Z,49.70
2024-03-10T03:01:01.691Z,50.40
2024-03-10T03:04:30.011Z,46.80
2024-03-10T03:07:57.394Z,47.10
2024-03-10T03:11:23.430Z,49.40
2024-03-10T03:14:49.256Z,49.30
2024-03-10T03:18:15.528Z,55.00
2024-03-10T03:21:41.938Z,52.60
2024-03-10T03:25:09.435Z,50.30
2024-03-10T03:28:35.633Z,48.10
2024-03-10T03:32:01.367Z,56.70
2024-03-10T03:35:27.964Z,54.80
2024-03-10T03:38:54.024Z,58.80
2024-03-10T03:42:20.470Z,53.70
2024-03-10T03:45:46.598Z,53.30
2024-03-10T03:49:12.644Z,51.40
2024-03-10T03:52:42.449Z,55.20
2024-03-10T03:56:10.523Z,54.00
2024-03-10T03:59:36.959Z,53.00
2024-03-10T04:03:03.062Z,52.10
2024-03-10T04:06:30.264Z,57.00
2024-03-10T04:09:57.928Z,54.90
2024-03-10T04:13:23.913Z,52.30
2024-03-10T04:16:50.477Z,49.70
2024-03-10T04:20:17.311Z,52.00
2024-03-10T04:23:44.009Z,53.20
2024-03-10T04:27:10.872Z,51.80
2024-03-10T04:30:37.385Z,58.90
2024-03-10T04:34:03.354Z,56.10
2024-03-10T04:37:30.060Z,56.40
2024-03-10T04:40:56.121Z,51.10
2024-03-10T04:44:22.461Z,54.00
2024-03-10T04:47:48.679Z,53.00
2024-03-10T04:51:15.825Z,56.00
2024-03-10T04:54:42.661Z,51.40
2024-03-10T04:58:09.732Z,54.10
2024-03-10T05:01:36.071Z,53.30
2024-03-10T05:05:04.811Z,53.40
2024-03-10T05:08:31.145Z,53.20
2024-03-10T05:11:57.367Z,54.80
2024-03-10T05:15:24.069Z,50.50
2024-03-10T05:18:50.202Z,51.90
2024-03-10T05:22:16.326Z,55.80
2024-03-10T05:25:42.459Z,49.60
2024-03-10T05:29:08.424Z,51.30
2024-03-10T05:32:34.530Z,54.70
2024-03-10T05:36:03.228Z,55.90
2024-03-10T05:39:29.113Z,55.80
2024-03-10T05:42:54.760Z,57.30
2024-03-10T05:46:20.895Z,55.40
2024-03-10T05:49:49.033Z,53.70
2024-03-10T05:53:15.457Z,54.00
2024-03-10T05:56:41.273Z,52.50
2024-03-10T06:00:15.855Z,53.00
2024-03-10T06:03:41.803Z,54.00
2024-03-10T06:07:08.242Z,60.30
2024-03-10T06:10:34.274Z,53.30
2024-03-10T06:14:00.469Z,53.50
2024-03-10T06:17:32.979Z,57.20
2024-03-10T06:21:17.256Z,58.30
2024-03-10T06:25:00.893Z,57.10
2024-03-10T06:31:51.019Z,57.50
2024-03-10T06:35:16.870Z,53.20
2024-03-10T06:38:44.132Z,55.30
2024-03-10T06:42:10.219Z,56.80
2024-03-10T06:45:36.459Z,51.40
2024-03-10T06:49:02.501Z,48.90
2024-03-10T06:52:28.414Z,55.80
2024-03-10T06:55:56.001Z,59.80
2024-03-10T06:59:24.326Z,51.80
2024-03-10T07:02:50.453Z,56.60
2024-03-10T07:06:23.115Z,53.50
2024-03-10T07:09:49.220Z,48.00
2024-03-10T07:13:15.263Z,49.20
2024-03-10T07:16:41.889Z,50.40
2024-03-10T07:20:11.914Z,49.90
2024-03-10T07:23:38.209Z,52.10
2024-03-10T07:27:04.497Z,52.50
2024-03-10T07:30:30.642Z,52.10
2024-03-10T07:33:56.442Z,50.10
2024-03-10T07:37:22.780Z,51.70
2024-03-10T07:40:53.642Z,49.80
2024-03-10T07:44:21.026Z,48.00
2024-03-10T07:47:48.606Z,52.50
2024-03-10T07:51:14.794Z,47.70
2024-03-10T07:54:40.826Z,45.40
2024-03-10T07:58:08.188Z,51.40
2024-03-10T08:01:34.453Z,50.20
2024-03-10T08:05:00.741Z,52.10
2024-03-10T08:08:27.062Z,47.90
2024-03-10T08:11:54.631Z,46.80
2024-03-10T08:15:20.995Z,46.30
2024-03-10T08:18:49.629Z,45.90
2024-03-10T08:22:17.175Z,45.60
2024-03-10T08:25:46.733Z,45.50
2024-03-10T08:29:13.460Z,44.50
2024-03-10T08:32:40.173Z,47.90
2024-03-10T08:36:10.516Z,48.80
2024-03-10T08:39:36.625Z,45.70
2024-03-10T08:43:02.662Z,43.80
2024-03-10T08:46:28.614Z,44.30
2024-03-10T08:49:54.583Z,44.20
2024-03-10T08:53:23.294Z,46.40
2024-03-10T08:56:51.080Z,43.30
2024-03-10T09:00:19.291Z,41.80
2024-03-10T09:03:45.092Z,42.20
2024-03-10T09:07:11.323Z,45.90
2024-03-10T09:10:44.608Z,48.90
2024-03-10T09:14:20.636Z,39.80
2024-03-10T09:17:47.382Z,37.40
2024-03-10T09:21:15.516Z,47.90
2024-03-10T09:24:44.090Z,38.90
2024-03-10T09:28:10.557Z,39.70
2024-03-10T09:31:38.941Z,38.90
2024-03-10T09:35:05.331Z,42.10
2024-03-10T09:38:31.488Z,38.90
2024-03-10T09:41:58.572Z,37.20
2024-03-10T09:45:27.603Z,38.60
2024-03-10T09:48:54.095Z,37.70
2024-03-10T09:52:21.051Z,35.00
2024-03-10T09:55:50.006Z,36.90
2024-03-10T09:59:25.804Z,33.00
2024-03-10T10:02:54.656Z,36.80
2024-03-10T10:06:24.467Z,34.80
2024-03-10T10:10:00.169Z,35.20
2024-03-10T10:13:28.289Z,33.60
2024-03-10T10:16:57.876Z,32.70
2024-03-10T10:20:26.707Z,36.50
2024-03-10T10:23:53.730Z,35.00
2024-03-10T10:27:19.753Z,34.40
2024-03-10T10:30:46.194Z,37.70
2024-03-10T10:34:16.972Z,33.40
2024-03-10T10:37:48.428Z,38.40
2024-03-10T10:41:15.081Z,35.80
2024-03-10T10:44:42.296Z,35.10
2024-03-10T10:48:11.135Z,35.70
2024-03-10T10:51:37.539Z,38.40
2024-03-10T10:55:03.673Z,33.20
2024-03-10T10:58:36.467Z,31.60
2024-03-10T11:02:21.419Z,34.80
2024-03-10T11:06:25.562Z,33.20
2024-03-10T11:09:52.375Z,31.60
2024-03-10T11:13:20.252Z,30.80
2024-03-10T11:16:47.274Z,29.70
2024-03-10T11:20:15.054Z,30.10
2024-03-10T11:23:49.544Z,32.50
2024-03-10T11:27:19.954Z,26.80
2024-03-10T11:30:52.813Z,28.90
2024-03-10T11:34:19.916Z,27.20
2024-03-10T11:37:47.119Z,29.70
2024-03-10T11:41:13.584Z,29.60
2024-03-10T11:44:39.824Z,31.80
2024-03-10T11:48:07.891Z,32.00
2024-03-10T11:51:36.533Z,28.40
2024-03-10T11:55:13.170Z,27.70
2024-03-10T11:58:40.051Z,29.40
2024-03-10T12:02:06.473Z,29.40
2024-03-10T12:05:33.246Z,24.80
2024-03-10T12:08:59.774Z,32.30
2024-03-10T12:12:33.966Z,27.60
2024-03-10T12:16:04.335Z,27.30
2024-03-10T12:19:31.057Z,25.10
2024-03-10T12:22:59.868Z,24.80
2024-03-10T12:26:30.235Z,23.90
2024-03-10T12:29:57.879Z,26.10
2024-03-10T12:33:24.042Z,21.60
2024-03-10T12:36:50.032Z,27.60
2024-03-10T12:40:17.814Z,22.50
2024-03-10T12:43:45.793Z,22.80
2024-03-10T12:47:12.629Z,25.30
2024-03-10T12:50:41.055Z,25.20
2024-03-10T12:54:08.302Z,23.20
2024-03-10T12:57:34.359Z,28.90
2024-03-10T13:01:00.060Z,23.80
2024-03-10T13:04:25.754Z,24.40
2024-03-10T13:07:51.938Z,25.90
2024-03-10T13:11:19.202Z,25.00
2024-03-10T13:14:45.470Z,23.90
2024-03-10T13:18:14.239Z,26.20
2024-03-10T13:21:41.436Z,25.60
2024-03-10T13:25:09.425Z,29.10
2024-03-10T13:28:36.010Z,26.30
2024-03-10T13:32:02.642Z,27.60
2024-03-10T13:35:29.049Z,22.60
2024-03-10T13:38:55.344Z,28.00
2024-03-10T13:42:21.302Z,25.60
2024-03-10T13:45:47.235Z,24.40
2024-03-10T13:49:14.078Z,25.50
2024-03-10T13:52:40.516Z,28.10
2024-03-10T13:56:07.080Z,27.00
2024-03-10T13:59:33.541Z,23.10
2024-03-10T14:03:03.520Z,23.80
2024-03-10T14:06:32.764Z,27.50
2024-03-10T14:09:59.274Z,23.30
2024-03-10T14:13:25.297Z,26.20
2024-03-10T14:16:52.341Z,24.20
2024-03-10T14:20:20.224Z,26.80
2024-03-10T14:23:46.615Z,24.40
2024-03-10T14:27:13.012Z,22.50
2024-03-10T14:30:41.628Z,28.20
2024-03-10T14:34:07.584Z,25.90
2024-03-10T14:37:36.126Z,22.40
2024-03-10T14:41:02.740Z,23.50
2024-03-10T14:44:28.910Z,29.60
2024-03-10T14:47:56.191Z,25.50
2024-03-10T14:51:23.513Z,25.70
2024-03-10T14:54:49.749Z,24.30
2024-03-10T14:58:16.003Z,22.80
2024-03-10T15:01:44.811Z,23.40
2024-03-10T15:05:14.358Z,20.50
2024-03-10T15:08:40.803Z,21.30
2024-03-10T15:12:08.480Z,21.50
2024-03-10T15:15:34.239Z,21.20
2024-03-10T15:19:00.476Z,23.90
2024-03-10T15:22:26.802Z,25.60
2024-03-10T15:25:55.580Z,22.90
2024-03-10T15:29:23.805Z,25.40
2024-03-10T15:32:51.846Z,26.10
2024-03-10T15:36:18.732Z,22.50
2024-03-10T15:39:46.386Z,21.60
2024-03-10T15:43:14.266Z,22.70
2024-03-10T15:46:41.064Z,21.20
2024-03-10T15:50:11.165Z,21.30
2024-03-10T15:53:37.582Z,21.20
2024-03-10T15:57:05.767Z,22.70
2024-03-10T16:00:32.182Z,22.90
2024-03-10T16:04:01.942Z,21.50
2024-03-10T16:07:28.161Z,24.10
2024-03-10T16:10:54.709Z,25.90
2024-03-10T16:14:21.660Z,23.50
2024-03-10T16:17:48.341Z,26.70
2024-03-10T16:21:19.541Z,22.50
2024-03-10T16:24:46.786Z,20.80
2024-03-10T16:28:12.947Z,23.40
2024-03-10T16:31:39.156Z,21.30
2024-03-10T16:35:05.609Z,22.50
2024-03-10T16:38:31.757Z,23.30
2024-03-10T16:41:58.643Z,22.30
2024-03-10T16:45:24.947Z,20.50
2024-03-10T16:48:51.111Z,26.90
2024-03-10T16:52:19.096Z,26.60
2024-03-10T16:55:49.045Z,22.80
2024-03-10T16:59:18.702Z,26.30
2024-03-10T17:02:46.119Z,24.70
2024-03-10T17:06:13.600Z,27.70
2024-03-10T17:09:40.144Z,19.70
2024-03-10T17:13:09.134Z,23.90
2024-03-10T17:16:35.751Z,23.80
2024-03-10T17:20:02.662Z,23.70
2024-03-10T17:23:29.205Z,30.50
2024-03-10T17:26:55.812Z,27.20
2024-03-10T17:30:22.268Z,29.60
2024-03-10T17:33:49.173Z,27.00
2024-03-10T17:37:16.546Z,39.70
2024-03-10T17:40:42.714Z,36.20
2024-03-10T17:44:09.055Z,30.10
2024-03-10T17:47:37.114Z,24.50
2024-03-10T17:51:06.024Z,24.40
2024-03-10T17:54:34.105Z,25.70
2024-03-10T17:58:01.772Z,28.80
2024-03-10T18:01:27.719Z,23.10
2024-03-10T18:04:54.757Z,25.20
2024-03-10T18:08:22.238Z,25.60
2024-03-10T18:11:50.118Z,23.50
2024-03-10T18:15:20.701Z,23.20
2024-03-10T18:18:48.678Z,24.60
2024-03-10T18:22:17.037Z,24.60
2024-03-10T18:25:45.071Z,27.60
2024-03-10T18:29:14.414Z,24.70
2024-03-10T18:32:42.709Z,25.40
2024-03-10T18:36:10.644Z,25.50
2024-03-10T18:39:37.960Z,21.00
2024-03-10T18:43:05.483Z,27.50
2024-03-10T18:46:33.204Z,23.80
2024-03-10T18:49:59.083Z,27.70
2024-03-10T18:53:25.601Z,27.70
2024-03-10T18:56:52.958Z,25.10
2024-03-10T19:00:19.129Z,26.50
2024-03-10T19:03:48.418Z,21.00
2024-03-10T19:07:17.007Z,25.10
2024-03-10T19:10:43.000Z,26.50
2024-03-10T19:14:09.280Z,24.70
2024-03-10T19:17:35.516Z,27.70
2024-03-10T19:21:04.374Z,23.50
2024-03-10T19:24:31.071Z,24.10
2024-03-10T19:27:56.843Z,23.40
2024-03-10T19:31:22.800Z,23.80
2024-03-10T19:34:48.693Z,26.10
2024-03-10T19:38:14.772Z,22.90
2024-03-10T19:41:41.273Z,22.90
2024-03-10T19:45:08.656Z,25.80
2024-03-10T19:48:34.731Z,22.60
2024-03-10T19:52:00.882Z,20.50
2024-03-10T19:55:27.017Z,21.80
2024-03-10T19:58:55.298Z,21.40
2024-03-10T20:02:21.147Z,20.70
2024-03-10T20:05:47.321Z,24.00
2024-03-10T20:09:18.031Z,22.40
2024-03-10T20:12:44.053Z,21.00
2024-03-10T20:16:10.837Z,22.30
2024-03-10T20:19:36.873Z,23.10
2024-03-10T20:23:02.995Z,21.80
2024-03-10T20:26:28.824Z,19.00
2024-03-10T20:29:54.497Z,21.90
2024-03-10T20:33:20.334Z,21.80
2024-03-10T20:36:46.501Z,20.60
2024-03-10T20:40:14.467Z,22.30
2024-03-10T20:43:40.401Z,22.90
2024-03-10T20:47:07.691Z,24.50
2024-03-10T20:50:34.473Z,21.20
2024-03-10T20:54:00.215Z,22.20
2024-03-10T20:57:25.919Z,21.70
2024-03-10T21:00:55.956Z,25.10
2024-03-10T21:04:22.062Z,23.50
2024-03-10T21:07:48.343Z,18.10
2024-03-10T21:11:14.841Z,24.40
2024-03-10T21:14:42.155Z,23.40
2024-03-10T21:18:09.577Z,21.60
2024-03-10T21:21:35.988Z,24.20
2024-03-10T21:25:02.196Z,24.70
2024-03-10T21:28:29.673Z,21.60
2024-03-10T21:31:55.551Z,20.40
2024-03-10T21:35:24.587Z,23.60
2024-03-10T21:38:51.998Z,26.10
2024-03-10T21:42:19.523Z,21.80
2024-03-10T21:45:46.656Z,21.60
2024-03-10T21:49:12.864Z,22.50
2024-03-10T21:52:39.384Z,23.10
2024-03-10T21:56:06.370Z,23.00
2024-03-10T21:59:32.164Z,22.90
2024-03-10T22:02:58.491Z,24.30
2024-03-10T22:06:24.100Z,21.80
2024-03-10T22:09:50.268Z,23.20
2024-03-10T22:13:15.778Z,24.20
2024-03-10T22:16:41.945Z,21.80
2024-03-10T22:20:13.878Z,24.20
2024-03-10T22:23:39.644Z,22.50
2024-03-10T22:27:06.323Z,24.40
2024-03-10T22:30:33.155Z,25.30
2024-03-10T22:33:58.992Z,21.60
2024-03-10T22:37:25.760Z,26.10
2024-03-10T22:40:53.200Z,23.00
2024-03-10T22:44:19.883Z,22.20
2024-03-10T22:47:47.224Z,23.40
2024-03-10T22:51:13.152Z,22.10
2024-03-10T22:54:39.294Z,22.70
2024-03-10T22:58:06.008Z,24.20
2024-03-10T23:01:33.951Z,21.00
2024-03-10T23:05:01.513Z,20.30
2024-03-10T23:08:27.372Z,21.00
2024-03-10T23:11:53.996Z,20.80
2024-03-10T23:15:22.380Z,25.20
2024-03-10T23:18:51.240Z,24.00
2024-03-10T23:22:18.001Z,22.50
2024-03-10T23:25:44.048Z,24.80
2024-03-10T23:29:10.067Z,24.70
2024-03-10T23:32:36.290Z,23.30
2024-03-10T23:36:04.493Z,24.20
2024-03-10T23:39:32.446Z,23.80
2024-03-10T23:42:58.823Z,21.30
2024-03-10T23:46:25.221Z,23.50
2024-03-10T23:49:50.808Z,24.50
2024-03-10T23:53:16.899Z,24.40
2024-03-10T23:56:42.924Z,23.00
